sensor_id;sensor_type;location;lat;lon;timestamp;noise_LAeq;noise_LA_min;noise_LA_max;noise_LA01;noise_LA95
78273;Laerm;67530;52.282;5.972;2023-03-03T00:00:02;54.2;52.1;55.4;;
78273;Laerm;67530;52.282;5.972;2023-03-03T00:00:22;54.2;51;55.4;;
78273;Laerm;67530;52.282;5.972;2023-03-03T00:00:42;54;50.4;55.6;;
78273;Laerm;67530;52.282;5.972;2023-03-03T00:01:02;54.3;50.9;55.4;;
78273;Laerm;67530;52.282;5.972;2023-03-03T00:01:22;54.3;51.6;55.5;;
78273;Laerm;67530;52.282;5.972;2023-03-03T00:01:42;54.2;50.5;55.6;;
78273;Laerm;67530;52.282;5.972;2023-03-03T00:02:02;54.3;51.3;55.7;;
78273;Laerm;67530;52.282;5.972;2023-03-03T00:02:22;54.4;51.6;55.6;;
78273;Laerm;67530;52.282;5.972;2023-03-03T00:02:42;54.2;50.6;55.7;;
78273;Laerm;67530;52.282;5.972;2023-03-03T00:03:03;54.2;50.2;55.7;;
78273;Laerm;67530;52.282;5.972;2023-03-03T00:03:23;54.6;51;56.2;;
78273;Laerm;67530;52.282;5.972;2023-03-03T00:03:43;54.9;50.9;56.2;;
78273;Laerm;67530;52.282;5.972;2023-03-03T00:04:03;55.2;52.9;56.3;;
78273;Laerm;67530;52.282;5.972;2023-03-03T00:04:23;55.3;51.4;56.7;;
78273;Laerm;67530;52.282;5.972;2023-03-03T00:04:43;55.4;52;56.4;;
78273;Laerm;67530;52.282;5.972;2023-03-03T00:05:03;55.2;52.1;56.5;;
78273;Laerm;67530;52.282;5.972;2023-03-03T00:05:23;55.3;51.7;56.6;;
78273;Laerm;67530;52.282;5.972;2023-03-03T00:05:43;55.1;51.9;56.5;;
78273;Laerm;67530;52.282;5.972;2023-03-03T00:06:03;55;52.5;56.3;;
78273;Laerm;67530;52.282;5.972;2023-03-03T00:06:23;54.7;51.4;56.2;;
78273;Laerm;67530;52.282;5.972;2023-03-03T00:06:43;54.7;52.1;56.1;;
78273;Laerm;67530;52.282;5.972;2023-03-03T00:07:03;54.5;50.9;56;;
78273;Laerm;67530;52.282;5.972;2023-03-03T00:07:23;54.6;50.7;56.1;;
78273;Laerm;67530;52.282;5.972;2023-03-03T00:07:44;54.4;50.9;55.9;;
78273;Laerm;67530;52.282;5.972;2023-03-03T00:08:04;54.1;49.9;56.1;;
78273;Laerm;67530;52.282;5.972;2023-03-03T00:08:24;54.3;51.4;55.9;;
78273;Laerm;67530;52.282;5.972;2023-03-03T00:08:43;54.5;51.1;55.7;;
78273;Laerm;67530;52.282;5.972;2023-03-03T00:09:04;54.5;50.9;56.2;;
78273;Laerm;67530;52.282;5.972;2023-03-03T00:09:24;54.9;52.3;56.1;;
78273;Laerm;67530;52.282;5.972;2023-03-03T00:09:44;55;51.4;56.5;;
78273;Laerm;67530;52.282;5.972;2023-03-03T00:10:04;55.3;51;56.6;;
78273;Laerm;67530;52.282;5.972;2023-03-03T00:10:24;55.4;51.8;56.6;;
78273;Laerm;67530;52.282;5.972;2023-03-03T00:10:44;55.5;52.5;56.8;;
78273;Laerm;67530;52.282;5.972;2023-03-03T00:11:04;55.8;53.7;57;;
78273;Laerm;67530;52.282;5.972;2023-03-03T00:11:24;55.9;53.4;57.3;;
78273;Laerm;67530;52.282;5.972;2023-03-03T00:11:44;56.1;53.3;57.4;;
78273;Laerm;67530;52.282;5.972;2023-03-03T00:12:13;56;53.2;57.1;;
78273;Laerm;67530;52.282;5.972;2023-03-03T00:12:25;56.1;52.8;57.3;;
78273;Laerm;67530;52.282;5.972;2023-03-03T00:12:45;56.1;52.4;57.2;;
78273;Laerm;67530;52.282;5.972;2023-03-03T00:13:05;56;53.7;57.2;;
78273;Laerm;67530;52.282;5.972;2023-03-03T00:13:25;55.9;53.4;57.1;;
78273;Laerm;67530;52.282;5.972;2023-03-03T00:13:45;55.9;52.1;57.4;;
78273;Laerm;67530;52.282;5.972;2023-03-03T00:14:09;55.7;53.2;57.1;;
78273;Laerm;67530;52.282;5.972;2023-03-03T00:14:27;55.6;52.9;57;;
78273;Laerm;67530;52.282;5.972;2023-03-03T00:14:45;55.5;52.1;56.8;;
78273;Laerm;67530;52.282;5.972;2023-03-03T00:15:11;55.5;53.2;56.9;;
78273;Laerm;67530;52.282;5.972;2023-03-03T00:15:25;55.4;53.3;56.8;;
78273;Laerm;67530;52.282;5.972;2023-03-03T00:15:45;55.3;53.2;56.5;;
78273;Laerm;67530;52.282;5.972;2023-03-03T00:16:09;55.1;52.5;56.4;;
78273;Laerm;67530;52.282;5.972;2023-03-03T00:16:27;54.9;51.6;56.3;;
78273;Laerm;67530;52.282;5.972;2023-03-03T00:16:45;54.8;51;56.1;;
78273;Laerm;67530;52.282;5.972;2023-03-03T00:17:10;54.7;51.4;55.9;;
78273;Laerm;67530;52.282;5.972;2023-03-03T00:17:26;54.6;51.4;56;;
78273;Laerm;67530;52.282;5.972;2023-03-03T00:17:45;54.4;51.4;56;;
78273;Laerm;67530;52.282;5.972;2023-03-03T00:18:09;54.2;51.6;55.7;;
78273;Laerm;67530;52.282;5.972;2023-03-03T00:18:27;54.4;51.2;55.7;;
78273;Laerm;67530;52.282;5.972;2023-03-03T00:18:46;54.5;50.5;55.9;;
78273;Laerm;67530;52.282;5.972;2023-03-03T00:19:10;54.4;51.7;55.6;;
78273;Laerm;67530;52.282;5.972;2023-03-03T00:19:25;54.5;51;55.6;;
78273;Laerm;67530;52.282;5.972;2023-03-03T00:19:45;54.3;51.5;55.6;;
78273;Laerm;67530;52.282;5.972;2023-03-03T00:20:21;54.4;52.4;55.3;;
78273;Laerm;67530;52.282;5.972;2023-03-03T00:20:28;54.2;51.8;55.3;;
78273;Laerm;67530;52.282;5.972;2023-03-03T00:20:47;54.2;52;55.3;;
78273;Laerm;67530;52.282;5.972;2023-03-03T00:21:10;54.1;51.5;55.2;;
78273;Laerm;67530;52.282;5.972;2023-03-03T00:21:27;54;51.4;55.1;;
78273;Laerm;67530;52.282;5.972;2023-03-03T00:21:46;54;50.9;55.2;;
78273;Laerm;67530;52.282;5.972;2023-03-03T00:22:06;52.7;48.7;54.9;;
78273;Laerm;67530;52.282;5.972;2023-03-03T00:22:27;53.8;50.7;54.9;;
78273;Laerm;67530;52.282;5.972;2023-03-03T00:22:46;53.8;50.1;55.1;;
78273;Laerm;67530;52.282;5.972;2023-03-03T00:23:12;53.7;51.3;55;;
78273;Laerm;67530;52.282;5.972;2023-03-03T00:23:28;53.6;50.2;54.9;;
78273;Laerm;67530;52.282;5.972;2023-03-03T00:23:46;53.4;50.6;56.5;;
78273;Laerm;67530;52.282;5.972;2023-03-03T00:24:14;53.6;48.7;54.9;;
78273;Laerm;67530;52.282;5.972;2023-03-03T00:24:29;53.6;50.8;55.2;;
78273;Laerm;67530;52.282;5.972;2023-03-03T00:24:46;53.8;51;55.1;;
78273;Laerm;67530;52.282;5.972;2023-03-03T00:25:20;53.9;51;54.8;;
78273;Laerm;67530;52.282;5.972;2023-03-03T00:25:28;54.2;51.9;55.5;;
78273;Laerm;67530;52.282;5.972;2023-03-03T00:25:48;54.3;51.2;55.3;;
78273;Laerm;67530;52.282;5.972;2023-03-03T00:26:13;54.3;51.1;55.6;;
78273;Laerm;67530;52.282;5.972;2023-03-03T00:26:28;54.5;51.3;55.9;;
78273;Laerm;67530;52.282;5.972;2023-03-03T00:26:47;54.6;52.3;56;;
78273;Laerm;67530;52.282;5.972;2023-03-03T00:27:14;54.4;50.5;55.8;;
78273;Laerm;67530;52.282;5.972;2023-03-03T00:27:28;54.6;51.2;55.8;;
78273;Laerm;67530;52.282;5.972;2023-03-03T00:27:47;54.5;51.1;55.9;;
78273;Laerm;67530;52.282;5.972;2023-03-03T00:28:09;54.5;51.1;56.1;;
78273;Laerm;67530;52.282;5.972;2023-03-03T00:28:28;54.7;51;56;;
78273;Laerm;67530;52.282;5.972;2023-03-03T00:28:48;54.4;50.9;55.8;;
78273;Laerm;67530;52.282;5.972;2023-03-03T00:29:26;54.4;51.5;55.6;;
78273;Laerm;67530;52.282;5.972;2023-03-03T00:29:29;54.5;51.7;56;;
78273;Laerm;67530;52.282;5.972;2023-03-03T00:29:47;54.3;51;55.8;;
78273;Laerm;67530;52.282;5.972;2023-03-03T00:30:16;54.3;50.5;55.7;;
78273;Laerm;67530;52.282;5.972;2023-03-03T00:30:27;54.5;51.7;55.9;;
78273;Laerm;67530;52.282;5.972;2023-03-03T00:30:48;54.4;51.6;55.7;;
78273;Laerm;67530;52.282;5.972;2023-03-03T00:31:11;54.4;51.7;55.5;;
78273;Laerm;67530;52.282;5.972;2023-03-03T00:31:29;54.3;51.8;55.3;;
78273;Laerm;67530;52.282;5.972;2023-03-03T00:31:48;54.3;51.3;55.4;;
78273;Laerm;67530;52.282;5.972;2023-03-03T00:32:15;54.2;52.4;55.5;;
78273;Laerm;67530;52.282;5.972;2023-03-03T00:32:30;54.1;51;55.4;;
78273;Laerm;67530;52.282;5.972;2023-03-03T00:32:48;54;49.9;55.2;;
78273;Laerm;67530;52.282;5.972;2023-03-03T00:33:12;53.9;49.6;55.2;;
78273;Laerm;67530;52.282;5.972;2023-03-03T00:33:29;53.8;50.2;54.9;;
78273;Laerm;67530;52.282;5.972;2023-03-03T00:33:49;53.8;50.9;54.9;;
78273;Laerm;67530;52.282;5.972;2023-03-03T00:34:14;53.7;50.4;54.8;;
78273;Laerm;67530;52.282;5.972;2023-03-03T00:34:28;53.6;50.9;54.8;;
78273;Laerm;67530;52.282;5.972;2023-03-03T00:34:48;53.6;49.3;54.7;;
78273;Laerm;67530;52.282;5.972;2023-03-03T00:35:16;53.5;49.5;54.5;;
78273;Laerm;67530;52.282;5.972;2023-03-03T00:35:29;53.6;51.1;54.6;;
78273;Laerm;67530;52.282;5.972;2023-03-03T00:35:48;53.5;49.5;54.7;;
78273;Laerm;67530;52.282;5.972;2023-03-03T00:36:19;53.5;49.6;54.7;;
78273;Laerm;67530;52.282;5.972;2023-03-03T00:36:30;53.6;51.3;54.7;;
78273;Laerm;67530;52.282;5.972;2023-03-03T00:36:49;53.5;51.2;54.7;;
78273;Laerm;67530;52.282;5.972;2023-03-03T00:37:16;53.5;50.9;54.6;;
78273;Laerm;67530;52.282;5.972;2023-03-03T00:37:30;53.7;50.3;54.7;;
78273;Laerm;67530;52.282;5.972;2023-03-03T00:37:49;53.6;51.4;54.8;;
78273;Laerm;67530;52.282;5.972;2023-03-03T00:38:10;53.5;50.8;54.5;;
78273;Laerm;67530;52.282;5.972;2023-03-03T00:38:29;53.5;50.1;54.6;;
78273;Laerm;67530;52.282;5.972;2023-03-03T00:38:49;53.5;49.5;54.8;;
78273;Laerm;67530;52.282;5.972;2023-03-03T00:39:18;53.4;50.6;54.6;;
78273;Laerm;67530;52.282;5.972;2023-03-03T00:39:29;53.5;49.6;54.8;;
78273;Laerm;67530;52.282;5.972;2023-03-03T00:39:49;53.5;50.6;54.7;;
78273;Laerm;67530;52.282;5.972;2023-03-03T00:40:15;53.5;50.4;54.6;;
78273;Laerm;67530;52.282;5.972;2023-03-03T00:40:30;53.5;50.6;54.7;;
78273;Laerm;67530;52.282;5.972;2023-03-03T00:40:49;53.4;50.1;54.8;;
78273;Laerm;67530;52.282;5.972;2023-03-03T00:41:13;53.5;49.4;54.8;;
78273;Laerm;67530;52.282;5.972;2023-03-03T00:41:29;53.4;50.8;54.6;;
78273;Laerm;67530;52.282;5.972;2023-03-03T00:41:50;53.5;51.3;54.5;;
78273;Laerm;67530;52.282;5.972;2023-03-03T00:42:10;53.5;50.5;54.6;;
78273;Laerm;67530;52.282;5.972;2023-03-03T00:42:30;53.4;50.3;54.3;;
78273;Laerm;67530;52.282;5.972;2023-03-03T00:42:51;53.5;51.3;54.6;;
78273;Laerm;67530;52.282;5.972;2023-03-03T00:43:12;53.6;51.4;54.6;;
78273;Laerm;67530;52.282;5.972;2023-03-03T00:43:33;53.5;50.4;54.7;;
78273;Laerm;67530;52.282;5.972;2023-03-03T00:43:50;53.6;51.3;54.6;;
78273;Laerm;67530;52.282;5.972;2023-03-03T00:44:26;53.6;50.4;54.7;;
78273;Laerm;67530;52.282;5.972;2023-03-03T00:44:32;53.6;51;54.7;;
78273;Laerm;67530;52.282;5.972;2023-03-03T00:44:54;53.5;50.7;54.5;;
78273;Laerm;67530;52.282;5.972;2023-03-03T00:45:27;53.6;51.5;54.8;;
78273;Laerm;67530;52.282;5.972;2023-03-03T00:45:31;53.5;50.7;54.6;;
78273;Laerm;67530;52.282;5.972;2023-03-03T00:45:51;53.7;52.1;54.9;;
78273;Laerm;67530;52.282;5.972;2023-03-03T00:46:10;53.6;49.1;54.7;;
78273;Laerm;67530;52.282;5.972;2023-03-03T00:46:30;53.7;51;55;;
78273;Laerm;67530;52.282;5.972;2023-03-03T00:46:51;53.6;50.9;54.8;;
78273;Laerm;67530;52.282;5.972;2023-03-03T00:47:12;53.6;50.9;54.9;;
78273;Laerm;67530;52.282;5.972;2023-03-03T00:47:31;53.6;51.6;54.6;;
78273;Laerm;67530;52.282;5.972;2023-03-03T00:47:51;53.6;50.7;54.7;;
78273;Laerm;67530;52.282;5.972;2023-03-03T00:48:20;53.5;50.4;54.7;;
78273;Laerm;67530;52.282;5.972;2023-03-03T00:48:38;53.5;51.1;54.6;;
78273;Laerm;67530;52.282;5.972;2023-03-03T00:48:51;53.5;50.8;54.7;;
78273;Laerm;67530;52.282;5.972;2023-03-03T00:49:12;53.5;49.3;54.6;;
78273;Laerm;67530;52.282;5.972;2023-03-03T00:49:31;53.6;51.2;54.8;;
78273;Laerm;67530;52.282;5.972;2023-03-03T00:49:51;53.5;51.2;54.6;;
78273;Laerm;67530;52.282;5.972;2023-03-03T00:50:17;53.5;51.4;54.8;;
78273;Laerm;67530;52.282;5.972;2023-03-03T00:50:32;53.5;49.4;54.6;;
78273;Laerm;67530;52.282;5.972;2023-03-03T00:50:52;53.6;50.6;54.8;;
78273;Laerm;67530;52.282;5.972;2023-03-03T00:51:17;53.6;51.3;54.7;;
78273;Laerm;67530;52.282;5.972;2023-03-03T00:51:32;53.7;51.4;54.8;;
78273;Laerm;67530;52.282;5.972;2023-03-03T00:51:51;53.6;49.5;55;;
78273;Laerm;67530;52.282;5.972;2023-03-03T00:52:21;53.5;50.5;54.6;;
78273;Laerm;67530;52.282;5.972;2023-03-03T00:52:32;53.6;50.5;54.7;;
78273;Laerm;67530;52.282;5.972;2023-03-03T00:52:57;53.5;51.1;54.6;;
78273;Laerm;67530;52.282;5.972;2023-03-03T00:53:22;53.6;50.4;54.8;;
78273;Laerm;67530;52.282;5.972;2023-03-03T00:53:32;53.6;50.6;54.6;;
78273;Laerm;67530;52.282;5.972;2023-03-03T00:53:52;53.6;49.6;54.9;;
78273;Laerm;67530;52.282;5.972;2023-03-03T00:54:12;53.4;50;54.6;;
78273;Laerm;67530;52.282;5.972;2023-03-03T00:54:32;53.5;49.8;54.6;;
78273;Laerm;67530;52.282;5.972;2023-03-03T00:54:52;53.5;50.7;54.8;;
78273;Laerm;67530;52.282;5.972;2023-03-03T00:55:12;53.4;50.3;54.4;;
78273;Laerm;67530;52.282;5.972;2023-03-03T00:55:33;53.4;50.2;54.7;;
78273;Laerm;67530;52.282;5.972;2023-03-03T00:55:52;53.3;49.2;54.6;;
78273;Laerm;67530;52.282;5.972;2023-03-03T00:56:12;53.4;49.2;54.5;;
78273;Laerm;67530;52.282;5.972;2023-03-03T00:56:32;53.5;51.5;54.7;;
78273;Laerm;67530;52.282;5.972;2023-03-03T00:56:52;53.4;50.4;54.7;;
78273;Laerm;67530;52.282;5.972;2023-03-03T00:57:12;53.5;50.2;54.4;;
78273;Laerm;67530;52.282;5.972;2023-03-03T00:57:32;53.6;51;55;;
78273;Laerm;67530;52.282;5.972;2023-03-03T00:57:52;53.5;50.5;55;;
78273;Laerm;67530;52.282;5.972;2023-03-03T00:58:12;53.5;50.4;54.7;;
78273;Laerm;67530;52.282;5.972;2023-03-03T00:58:33;53.5;50.4;54.7;;
78273;Laerm;67530;52.282;5.972;2023-03-03T00:58:53;53.6;51.3;54.8;;
78273;Laerm;67530;52.282;5.972;2023-03-03T00:59:13;53.6;50.5;55.1;;
78273;Laerm;67530;52.282;5.972;2023-03-03T00:59:33;53.7;51;54.8;;
78273;Laerm;67530;52.282;5.972;2023-03-03T00:59:53;53.7;51;54.6;;
78273;Laerm;67530;52.282;5.972;2023-03-03T01:00:13;53.6;51.6;54.6;;
78273;Laerm;67530;52.282;5.972;2023-03-03T01:00:33;53.5;49.5;54.6;;
78273;Laerm;67530;52.282;5.972;2023-03-03T01:00:53;53.7;49.7;54.7;;
78273;Laerm;67530;52.282;5.972;2023-03-03T01:01:13;53.5;49.9;54.7;;
78273;Laerm;67530;52.282;5.972;2023-03-03T01:01:33;53.5;50.9;54.7;;
78273;Laerm;67530;52.282;5.972;2023-03-03T01:01:53;53.5;50.4;54.5;;
78273;Laerm;67530;52.282;5.972;2023-03-03T01:02:13;53.5;50.9;54.6;;
78273;Laerm;67530;52.282;5.972;2023-03-03T01:02:33;53.5;51.3;54.6;;
78273;Laerm;67530;52.282;5.972;2023-03-03T01:02:53;53.4;50.8;54.9;;
78273;Laerm;67530;52.282;5.972;2023-03-03T01:03:14;53.5;50.7;54.5;;
78273;Laerm;67530;52.282;5.972;2023-03-03T01:03:33;53.4;51;54.6;;
78273;Laerm;67530;52.282;5.972;2023-03-03T01:03:53;53.4;49.3;54.8;;
78273;Laerm;67530;52.282;5.972;2023-03-03T01:04:14;53.4;50.6;54.6;;
78273;Laerm;67530;52.282;5.972;2023-03-03T01:04:34;53.4;50.7;54.6;;
78273;Laerm;67530;52.282;5.972;2023-03-03T01:04:54;53.4;49.9;54.6;;
78273;Laerm;67530;52.282;5.972;2023-03-03T01:05:15;53.6;51;54.7;;
78273;Laerm;67530;52.282;5.972;2023-03-03T01:05:34;53.5;50.7;54.6;;
78273;Laerm;67530;52.282;5.972;2023-03-03T01:05:54;53.6;50.9;54.9;;
78273;Laerm;67530;52.282;5.972;2023-03-03T01:06:14;53.7;51;54.8;;
78273;Laerm;67530;52.282;5.972;2023-03-03T01:06:34;53.7;51;55;;
78273;Laerm;67530;52.282;5.972;2023-03-03T01:06:54;53.8;50.7;54.8;;
78273;Laerm;67530;52.282;5.972;2023-03-03T01:07:14;53.9;51.1;55;;
78273;Laerm;67530;52.282;5.972;2023-03-03T01:07:34;53.8;50.4;55;;
78273;Laerm;67530;52.282;5.972;2023-03-03T01:07:54;53.8;51.1;55;;
78273;Laerm;67530;52.282;5.972;2023-03-03T01:08:14;53.8;51.9;54.9;;
78273;Laerm;67530;52.282;5.972;2023-03-03T01:08:34;53.8;51.5;54.9;;
78273;Laerm;67530;52.282;5.972;2023-03-03T01:08:54;53.7;51.5;55.5;;
78273;Laerm;67530;52.282;5.972;2023-03-03T01:09:14;53.6;50.2;54.7;;
78273;Laerm;67530;52.282;5.972;2023-03-03T01:09:34;53.6;51.3;54.8;;
78273;Laerm;67530;52.282;5.972;2023-03-03T01:09:55;53.6;49.3;54.7;;
78273;Laerm;67530;52.282;5.972;2023-03-03T01:10:15;53.6;51.6;54.6;;
78273;Laerm;67530;52.282;5.972;2023-03-03T01:10:35;53.6;50.4;55;;
78273;Laerm;67530;52.282;5.972;2023-03-03T01:10:55;53.6;49.9;54.8;;
78273;Laerm;67530;52.282;5.972;2023-03-03T01:11:16;53.7;51.1;54.9;;
78273;Laerm;67530;52.282;5.972;2023-03-03T01:11:35;53.7;51.4;55.1;;
78273;Laerm;67530;52.282;5.972;2023-03-03T01:11:55;53.7;50.3;55.1;;
78273;Laerm;67530;52.282;5.972;2023-03-03T01:12:15;53.7;49.5;54.9;;
78273;Laerm;67530;52.282;5.972;2023-03-03T01:12:35;53.8;51.2;54.8;;
78273;Laerm;67530;52.282;5.972;2023-03-03T01:12:55;53.8;50.4;54.8;;
78273;Laerm;67530;52.282;5.972;2023-03-03T01:13:15;53.7;51.1;54.8;;
78273;Laerm;67530;52.282;5.972;2023-03-03T01:13:35;53.8;50.7;54.9;;
78273;Laerm;67530;52.282;5.972;2023-03-03T01:13:55;53.9;51.1;55.1;;
78273;Laerm;67530;52.282;5.972;2023-03-03T01:14:15;53.8;50;55;;
78273;Laerm;67530;52.282;5.972;2023-03-03T01:14:35;53.8;51.3;55.1;;
78273;Laerm;67530;52.282;5.972;2023-03-03T01:14:55;53.9;51.6;55.1;;
78273;Laerm;67530;52.282;5.972;2023-03-03T01:15:15;53.8;49.7;55;;
78273;Laerm;67530;52.282;5.972;2023-03-03T01:15:36;53.8;51.2;54.8;;
78273;Laerm;67530;52.282;5.972;2023-03-03T01:15:57;53.8;50.4;55;;
78273;Laerm;67530;52.282;5.972;2023-03-03T01:16:16;53.8;51.7;55;;
78273;Laerm;67530;52.282;5.972;2023-03-03T01:16:36;53.8;51.5;55;;
78273;Laerm;67530;52.282;5.972;2023-03-03T01:16:56;53.7;50.6;54.8;;
78273;Laerm;67530;52.282;5.972;2023-03-03T01:17:16;53.7;50.9;54.8;;
78273;Laerm;67530;52.282;5.972;2023-03-03T01:17:36;53.7;51.5;54.6;;
78273;Laerm;67530;52.282;5.972;2023-03-03T01:17:56;53.6;50.9;54.8;;
78273;Laerm;67530;52.282;5.972;2023-03-03T01:18:16;53.5;50.7;54.8;;
78273;Laerm;67530;52.282;5.972;2023-03-03T01:18:36;53.6;50.4;54.8;;
78273;Laerm;67530;52.282;5.972;2023-03-03T01:18:56;53.6;50.4;54.8;;
78273;Laerm;67530;52.282;5.972;2023-03-03T01:19:16;53.5;50.4;55;;
78273;Laerm;67530;52.282;5.972;2023-03-03T01:19:36;53.5;51.1;54.8;;
78273;Laerm;67530;52.282;5.972;2023-03-03T01:19:56;53.5;50.6;54.7;;
78273;Laerm;67530;52.282;5.972;2023-03-03T01:20:16;53.4;50.5;54.6;;
78273;Laerm;67530;52.282;5.972;2023-03-03T01:20:37;53.4;50.7;54.3;;
78273;Laerm;67530;52.282;5.972;2023-03-03T01:20:57;53.4;49.6;54.3;;
78273;Laerm;67530;52.282;5.972;2023-03-03T01:21:31;53.3;50.2;54.5;;
78273;Laerm;67530;52.282;5.972;2023-03-03T01:21:37;53.5;50.5;54.5;;
78273;Laerm;67530;52.282;5.972;2023-03-03T01:21:57;53.4;50.6;54.5;;
78273;Laerm;67530;52.282;5.972;2023-03-03T01:22:17;53.5;50;54.6;;
78273;Laerm;67530;52.282;5.972;2023-03-03T01:22:37;53.5;50.7;54.5;;
78273;Laerm;67530;52.282;5.972;2023-03-03T01:22:57;53.6;51.7;54.9;;
78273;Laerm;67530;52.282;5.972;2023-03-03T01:23:17;53.7;51.4;55.4;;
78273;Laerm;67530;52.282;5.972;2023-03-03T01:23:37;53.5;50.6;54.8;;
78273;Laerm;67530;52.282;5.972;2023-03-03T01:23:57;53.7;50.1;54.8;;
78273;Laerm;67530;52.282;5.972;2023-03-03T01:24:17;53.8;51.8;55.2;;
78273;Laerm;67530;52.282;5.972;2023-03-03T01:24:37;53.9;51.1;55;;
78273;Laerm;67530;52.282;5.972;2023-03-03T01:24:57;53.9;51.1;55.1;;
78273;Laerm;67530;52.282;5.972;2023-03-03T01:25:17;53.9;50.8;55;;
78273;Laerm;67530;52.282;5.972;2023-03-03T01:25:37;54.1;51.4;55.4;;
78273;Laerm;67530;52.282;5.972;2023-03-03T01:25:57;54.2;52;55.3;;
78273;Laerm;67530;52.282;5.972;2023-03-03T01:26:17;54.3;52.2;55.5;;
78273;Laerm;67530;52.282;5.972;2023-03-03T01:26:38;54.2;52.1;55.5;;
78273;Laerm;67530;52.282;5.972;2023-03-03T01:26:58;54.2;51.6;55.6;;
78273;Laerm;67530;52.282;5.972;2023-03-03T01:27:18;54.3;52.2;55.5;;
78273;Laerm;67530;52.282;5.972;2023-03-03T01:27:38;54.3;51.6;55.4;;
78273;Laerm;67530;52.282;5.972;2023-03-03T01:27:58;54.2;52;55.4;;
78273;Laerm;67530;52.282;5.972;2023-03-03T01:28:18;54.3;51.9;55.7;;
78273;Laerm;67530;52.282;5.972;2023-03-03T01:28:38;54.1;51.1;55.6;;
78273;Laerm;67530;52.282;5.972;2023-03-03T01:28:58;54.3;51.9;55.5;;
78273;Laerm;67530;52.282;5.972;2023-03-03T01:29:18;54.2;52.3;55.3;;
78273;Laerm;67530;52.282;5.972;2023-03-03T01:29:38;54.2;50.6;55.7;;
78273;Laerm;67530;52.282;5.972;2023-03-03T01:29:58;54.2;50.7;55.2;;
78273;Laerm;67530;52.282;5.972;2023-03-03T01:30:18;54.2;51.2;55.2;;
78273;Laerm;67530;52.282;5.972;2023-03-03T01:30:38;54;50.7;55.3;;
78273;Laerm;67530;52.282;5.972;2023-03-03T01:30:59;54;51.4;55.6;;
78273;Laerm;67530;52.282;5.972;2023-03-03T01:31:18;53.7;49.6;55;;
78273;Laerm;67530;52.282;5.972;2023-03-03T01:31:38;53.7;51.9;54.8;;
78273;Laerm;67530;52.282;5.972;2023-03-03T01:31:58;53.5;51.2;54.6;;
78273;Laerm;67530;52.282;5.972;2023-03-03T01:32:19;53.6;50.2;54.7;;
78273;Laerm;67530;52.282;5.972;2023-03-03T01:32:39;53.5;50.4;54.7;;
78273;Laerm;67530;52.282;5.972;2023-03-03T01:32:59;53.5;50.4;54.7;;
78273;Laerm;67530;52.282;5.972;2023-03-03T01:33:19;53.4;50.5;54.5;;
78273;Laerm;67530;52.282;5.972;2023-03-03T01:33:39;53.4;50.4;54.7;;
78273;Laerm;67530;52.282;5.972;2023-03-03T01:33:59;53.5;50.8;54.5;;
78273;Laerm;67530;52.282;5.972;2023-03-03T01:34:19;53.6;49.9;54.7;;
78273;Laerm;67530;52.282;5.972;2023-03-03T01:34:39;53.4;50.4;54.6;;
78273;Laerm;67530;52.282;5.972;2023-03-03T01:34:59;53.5;51.2;54.5;;
78273;Laerm;67530;52.282;5.972;2023-03-03T01:35:19;53.5;50.5;54.6;;
78273;Laerm;67530;52.282;5.972;2023-03-03T01:35:42;53.4;50.4;54.6;;
78273;Laerm;67530;52.282;5.972;2023-03-03T01:35:59;53.4;50.1;54.6;;
78273;Laerm;67530;52.282;5.972;2023-03-03T01:36:21;53.4;49.5;54.3;;
78273;Laerm;67530;52.282;5.972;2023-03-03T01:36:39;53.4;51.1;54.6;;
78273;Laerm;67530;52.282;5.972;2023-03-03T01:36:59;53.3;50.6;54.3;;
78273;Laerm;67530;52.282;5.972;2023-03-03T01:37:20;53.1;50.2;54.4;;
78273;Laerm;67530;52.282;5.972;2023-03-03T01:37:40;53.1;50.4;54.4;;
78273;Laerm;67530;52.282;5.972;2023-03-03T01:38:00;52.8;50.1;54.3;;
78273;Laerm;67530;52.282;5.972;2023-03-03T01:38:20;52.8;50;54;;
78273;Laerm;67530;52.282;5.972;2023-03-03T01:38:40;52.5;49;54.1;;
78273;Laerm;67530;52.282;5.972;2023-03-03T01:39:00;52.4;49;54;;
78273;Laerm;67530;52.282;5.972;2023-03-03T01:39:20;52.3;48.6;53.8;;
78273;Laerm;67530;52.282;5.972;2023-03-03T01:39:40;52.5;49.8;53.8;;
78273;Laerm;67530;52.282;5.972;2023-03-03T01:40:00;52.4;49.5;53.7;;
78273;Laerm;67530;52.282;5.972;2023-03-03T01:40:21;52.3;47.9;53.9;;
78273;Laerm;67530;52.282;5.972;2023-03-03T01:40:40;52.3;48.5;53.8;;
78273;Laerm;67530;52.282;5.972;2023-03-03T01:41:01;52.4;49.4;53.9;;
78273;Laerm;67530;52.282;5.972;2023-03-03T01:41:20;52.2;48.9;53.6;;
78273;Laerm;67530;52.282;5.972;2023-03-03T01:41:40;52.4;49.3;53.6;;
78273;Laerm;67530;52.282;5.972;2023-03-03T01:42:01;52.5;49.8;53.8;;
78273;Laerm;67530;52.282;5.972;2023-03-03T01:42:21;52.4;48.9;53.7;;
78273;Laerm;67530;52.282;5.972;2023-03-03T01:42:40;52.3;49.2;53.7;;
78273;Laerm;67530;52.282;5.972;2023-03-03T01:43:00;52.2;49.3;53.7;;
78273;Laerm;67530;52.282;5.972;2023-03-03T01:43:21;52.3;48.4;53.7;;
78273;Laerm;67530;52.282;5.972;2023-03-03T01:43:42;52.2;48.7;53.7;;
78273;Laerm;67530;52.282;5.972;2023-03-03T01:44:01;52.1;48.3;53.4;;
78273;Laerm;67530;52.282;5.972;2023-03-03T01:44:21;52.4;48.4;53.6;;
78273;Laerm;67530;52.282;5.972;2023-03-03T01:44:41;52.4;49.1;53.5;;
78273;Laerm;67530;52.282;5.972;2023-03-03T01:45:09;52.2;49.5;53.6;;
78273;Laerm;67530;52.282;5.972;2023-03-03T01:45:22;52.4;50.3;53.5;;
78273;Laerm;67530;52.282;5.972;2023-03-03T01:45:44;52.3;49.1;53.4;;
78273;Laerm;67530;52.282;5.972;2023-03-03T01:46:27;52.2;48.4;53.6;;
78273;Laerm;67530;52.282;5.972;2023-03-03T01:46:44;52.4;50.1;53.6;;
78273;Laerm;67530;52.282;5.972;2023-03-03T01:47:02;52.4;49.9;53.5;;
78273;Laerm;67530;52.282;5.972;2023-03-03T01:47:06;52.4;49.3;53.6;;
78273;Laerm;67530;52.282;5.972;2023-03-03T01:47:22;52.4;49.4;53.5;;
78273;Laerm;67530;52.282;5.972;2023-03-03T01:47:42;52.3;49.4;53.4;;
78273;Laerm;67530;52.282;5.972;2023-03-03T01:48:02;52.2;48.6;53.6;;
78273;Laerm;67530;52.282;5.972;2023-03-03T01:48:22;52.3;47.9;53.9;;
78273;Laerm;67530;52.282;5.972;2023-03-03T01:48:42;52.3;49.7;53.6;;
78273;Laerm;67530;52.282;5.972;2023-03-03T01:49:02;52.3;49.2;53.5;;
78273;Laerm;67530;52.282;5.972;2023-03-03T01:49:23;52.3;49.6;53.5;;
78273;Laerm;67530;52.282;5.972;2023-03-03T01:49:43;52.3;48.5;53.4;;
78273;Laerm;67530;52.282;5.972;2023-03-03T01:50:02;52.2;50;53.5;;
78273;Laerm;67530;52.282;5.972;2023-03-03T01:50:31;52.2;49.8;53.3;;
78273;Laerm;67530;52.282;5.972;2023-03-03T01:50:44;52.1;49.8;53;;
78273;Laerm;67530;52.282;5.972;2023-03-03T01:51:03;52.1;48.8;53.3;;
78273;Laerm;67530;52.282;5.972;2023-03-03T01:51:22;52.1;50.2;53;;
78273;Laerm;67530;52.282;5.972;2023-03-03T01:51:44;52.1;49.4;53.1;;
78273;Laerm;67530;52.282;5.972;2023-03-03T01:52:03;52;48.9;53.2;;
78273;Laerm;67530;52.282;5.972;2023-03-03T01:52:24;52;49.5;53;;
78273;Laerm;67530;52.282;5.972;2023-03-03T01:52:43;51.9;49.7;52.9;;
78273;Laerm;67530;52.282;5.972;2023-03-03T01:53:03;51.8;49.4;53;;
78273;Laerm;67530;52.282;5.972;2023-03-03T01:53:25;51.8;49.2;53.1;;
78273;Laerm;67530;52.282;5.972;2023-03-03T01:53:43;51.7;49.6;53.1;;
78273;Laerm;67530;52.282;5.972;2023-03-03T01:54:03;51.8;48.4;52.8;;
78273;Laerm;67530;52.282;5.972;2023-03-03T01:54:24;51.7;50;52.7;;
78273;Laerm;67530;52.282;5.972;2023-03-03T01:54:44;51.6;49.4;52.6;;
78273;Laerm;67530;52.282;5.972;2023-03-03T01:55:03;51.6;48.2;52.7;;
78273;Laerm;67530;52.282;5.972;2023-03-03T01:55:24;51.7;49.5;52.7;;
78273;Laerm;67530;52.282;5.972;2023-03-03T01:55:43;51.6;49;52.6;;
78273;Laerm;67530;52.282;5.972;2023-03-03T01:56:03;51.5;48.4;52.5;;
78273;Laerm;67530;52.282;5.972;2023-03-03T01:56:23;51.7;49.4;52.5;;
78273;Laerm;67530;52.282;5.972;2023-03-03T01:56:43;51.6;49.2;52.7;;
78273;Laerm;67530;52.282;5.972;2023-03-03T01:57:04;51.5;48.8;52.6;;
78273;Laerm;67530;52.282;5.972;2023-03-03T01:57:25;51.6;49;52.7;;
78273;Laerm;67530;52.282;5.972;2023-03-03T01:57:44;51.5;48.9;52.7;;